createdAt,value
2019-06-26T00:00:04.287Z,22.40
2019-06-26T00:01:04.437Z,22.30
2019-06-26T00:02:04.528Z,22.30
2019-06-26T00:03:04.850Z,22.30
2019-06-26T00:04:04.180Z,22.30
2019-06-26T00:05:04.336Z,22.30
2019-06-26T00:06:04.888Z,22.20
2019-06-26T00:07:04.715Z,22.20
2019-06-26T00:08:05.044Z,22.20
2019-06-26T00:09:04.554Z,22.20
2019-06-26T00:10:04.245Z,22.20
2019-06-26T00:11:04.924Z,22.20
2019-06-26T00:12:04.301Z,22.20
2019-06-26T00:13:05.065Z,22.10
2019-06-26T00:14:04.646Z,22.10
2019-06-26T00:15:05.039Z,22.10
2019-06-26T00:16:04.489Z,22.10
2019-06-26T00:17:05.149Z,22.00
2019-06-26T00:18:04.605Z,22.00
2019-06-26T00:19:04.282Z,22.00
2019-06-26T00:20:04.777Z,22.00
2019-06-26T00:21:05.034Z,22.00
2019-06-26T00:22:04.573Z,22.00
2019-06-26T00:23:04.803Z,22.00
2019-06-26T00:24:04.776Z,22.00
2019-06-26T00:25:04.183Z,22.00
2019-06-26T00:26:04.572Z,22.00
2019-06-26T00:27:04.755Z,21.90
2019-06-26T00:28:04.814Z,21.90
2019-06-26T00:29:04.955Z,21.90
2019-06-26T00:30:04.219Z,21.90
2019-06-26T00:31:12.226Z,21.90
2019-06-26T00:32:04.291Z,21.90
2019-06-26T00:33:04.758Z,21.90
2019-06-26T00:34:04.701Z,21.80
2019-06-26T00:35:05.123Z,21.80
2019-06-26T00:36:04.168Z,21.80
2019-06-26T00:37:04.890Z,21.80
2019-06-26T00:38:05.053Z,21.80
2019-06-26T00:39:04.486Z,21.80
2019-06-26T00:40:04.812Z,21.80
2019-06-26T00:41:05.169Z,21.80
2019-06-26T00:42:04.839Z,21.70
2019-06-26T00:43:04.942Z,21.70
2019-06-26T00:44:04.359Z,21.70
2019-06-26T00:45:04.470Z,21.70
2019-06-26T00:46:04.616Z,21.70
2019-06-26T00:47:04.762Z,21.70
2019-06-26T00:48:05.152Z,21.60
2019-06-26T00:49:05.152Z,21.60
2019-06-26T00:50:04.743Z,21.60
2019-06-26T00:51:04.890Z,21.60
2019-06-26T00:52:04.418Z,21.60
2019-06-26T00:53:10.021Z,21.60
2019-06-26T00:54:04.398Z,21.60
2019-06-26T00:55:04.647Z,21.60
2019-06-26T00:56:04.671Z,21.60
2019-06-26T00:57:04.773Z,21.60
2019-06-26T00:58:05.007Z,21.60
2019-06-26T00:59:05.110Z,21.50
2019-06-26T01:00:04.349Z,21.50
2019-06-26T01:01:05.092Z,21.50
2019-06-26T01:02:04.293Z,21.50
2019-06-26T01:03:04.861Z,21.50
2019-06-26T01:04:04.400Z,21.50
2019-06-26T01:05:04.549Z,21.50
2019-06-26T01:06:05.061Z,21.50
2019-06-26T01:07:04.223Z,21.40
2019-06-26T01:08:04.939Z,21.40
2019-06-26T01:09:05.105Z,21.40
2019-06-26T01:10:04.479Z,21.40
2019-06-26T01:11:05.079Z,21.40
2019-06-26T01:12:05.084Z,21.40
2019-06-26T01:13:04.514Z,21.40
2019-06-26T01:14:04.490Z,21.40
2019-06-26T01:15:04.821Z,21.40
2019-06-26T01:16:05.038Z,21.40
2019-06-26T01:17:04.230Z,21.40
2019-06-26T01:18:04.542Z,21.40
2019-06-26T01:19:04.691Z,21.40
2019-06-26T01:20:05.085Z,21.30
2019-06-26T01:21:04.311Z,21.30
2019-06-26T01:22:04.907Z,21.30
2019-06-26T01:23:04.184Z,21.30
2019-06-26T01:24:04.787Z,21.30
2019-06-26T01:25:04.251Z,21.20
2019-06-26T01:26:04.889Z,21.20
2019-06-26T01:27:04.373Z,21.20
2019-06-26T01:28:04.614Z,21.20
2019-06-26T01:29:04.284Z,21.20
2019-06-26T01:30:04.519Z,21.20
2019-06-26T01:31:04.679Z,21.10
2019-06-26T01:32:04.882Z,21.10
2019-06-26T01:33:04.959Z,21.10
2019-06-26T01:34:04.389Z,21.10
2019-06-26T01:35:05.153Z,21.10
2019-06-26T01:36:04.647Z,21.10
2019-06-26T01:37:04.953Z,21.10
2019-06-26T01:38:04.320Z,21.10
2019-06-26T01:39:04.756Z,21.10
2019-06-26T01:40:05.222Z,21.10
2019-06-26T01:41:04.639Z,21.10
2019-06-26T01:42:04.457Z,21.10
2019-06-26T01:43:04.603Z,21.10
2019-06-26T01:44:13.988Z,21.10
2019-06-26T01:45:04.290Z,21.10
2019-06-26T01:46:04.369Z,21.10
2019-06-26T01:47:09.658Z,21.00
2019-06-26T01:48:05.063Z,21.00
2019-06-26T01:49:04.347Z,21.00
2019-06-26T01:50:04.298Z,21.00
2019-06-26T01:51:04.953Z,21.00
2019-06-26T01:52:04.661Z,21.00
2019-06-26T01:53:04.222Z,21.00
2019-06-26T01:54:04.884Z,21.00
2019-06-26T01:55:05.028Z,21.00
2019-06-26T01:56:04.184Z,20.90
2019-06-26T01:57:04.602Z,20.90
2019-06-26T01:58:04.281Z,20.90
2019-06-26T01:59:04.456Z,20.90
2019-06-26T02:00:04.945Z,20.90
2019-06-26T02:01:04.252Z,20.90
2019-06-26T02:02:04.347Z,20.90
2019-06-26T02:03:04.643Z,20.90
2019-06-26T02:04:04.180Z,20.90
2019-06-26T02:05:04.713Z,20.80
2019-06-26T02:06:04.293Z,20.80
2019-06-26T02:07:04.329Z,20.80
2019-06-26T02:08:04.857Z,20.80
2019-06-26T02:09:04.538Z,20.80
2019-06-26T02:10:04.710Z,20.80
2019-06-26T02:11:04.715Z,20.80
2019-06-26T02:12:04.400Z,20.80
2019-06-26T02:13:04.535Z,20.80
2019-06-26T02:14:05.016Z,20.80
2019-06-26T02:15:04.725Z,20.70
2019-06-26T02:16:04.815Z,20.70
2019-06-26T02:17:04.247Z,20.70
2019-06-26T02:18:04.846Z,20.70
2019-06-26T02:19:04.277Z,20.70
2019-06-26T02:20:04.306Z,20.70
2019-06-26T02:21:04.499Z,20.70
2019-06-26T02:22:04.269Z,20.70
2019-06-26T02:23:04.495Z,20.70
2019-06-26T02:24:05.052Z,20.70
2019-06-26T02:25:04.572Z,20.60
2019-06-26T02:26:04.571Z,20.60
2019-06-26T02:27:04.438Z,20.60
2019-06-26T02:28:04.966Z,20.60
2019-06-26T02:29:05.058Z,20.60
2019-06-26T02:30:05.128Z,20.60
2019-06-26T02:31:04.365Z,20.60
2019-06-26T02:32:05.017Z,20.60
2019-06-26T02:33:04.192Z,20.60
2019-06-26T02:34:04.327Z,20.60
2019-06-26T02:35:09.009Z,20.60
2019-06-26T02:36:04.298Z,20.60
2019-06-26T02:37:04.403Z,20.60
2019-06-26T02:38:04.922Z,20.60
2019-06-26T02:39:04.955Z,20.60
2019-06-26T02:40:05.102Z,20.60
2019-06-26T02:41:04.153Z,20.60
2019-06-26T02:42:04.919Z,20.60
2019-06-26T02:43:06.918Z,20.60
2019-06-26T02:44:05.039Z,20.60
2019-06-26T02:45:04.641Z,20.60
2019-06-26T02:46:04.740Z,20.60
2019-06-26T02:47:19.100Z,20.50
2019-06-26T02:48:04.203Z,20.50
2019-06-26T02:49:04.355Z,20.50
2019-06-26T02:50:04.575Z,20.50
2019-06-26T02:51:04.788Z,20.50
2019-06-26T02:52:04.211Z,20.50
2019-06-26T02:53:04.890Z,20.50
2019-06-26T02:54:05.098Z,20.50
2019-06-26T02:55:04.199Z,20.50
2019-06-26T02:56:04.896Z,20.50
2019-06-26T02:57:04.663Z,20.50
2019-06-26T02:58:04.833Z,20.50
2019-06-26T02:59:04.982Z,20.50
2019-06-26T03:00:05.066Z,20.50
2019-06-26T03:01:05.193Z,20.50
2019-06-26T03:02:04.557Z,20.50
2019-06-26T03:03:04.436Z,20.50
2019-06-26T03:04:04.903Z,20.50
2019-06-26T03:05:04.517Z,20.50
2019-06-26T03:06:04.609Z,20.40
2019-06-26T03:07:09.803Z,20.50
2019-06-26T03:08:04.520Z,20.50
2019-06-26T03:09:05.197Z,20.50
2019-06-26T03:10:04.442Z,20.50
2019-06-26T03:11:04.920Z,20.50
2019-06-26T03:12:04.677Z,20.40
2019-06-26T03:13:04.727Z,20.50
2019-06-26T03:14:04.890Z,20.50
2019-06-26T03:15:08.618Z,20.40
2019-06-26T03:16:04.367Z,20.40
2019-06-26T03:17:04.647Z,20.40
2019-06-26T03:18:04.513Z,20.40
2019-06-26T03:19:04.961Z,20.50
2019-06-26T03:20:05.057Z,20.40
2019-06-26T03:21:04.415Z,20.40
2019-06-26T03:22:04.718Z,20.40
2019-06-26T03:23:04.453Z,20.40
2019-06-26T03:24:05.078Z,20.40
2019-06-26T03:25:05.126Z,20.40
2019-06-26T03:26:04.480Z,20.50
2019-06-26T03:27:04.590Z,20.50
2019-06-26T03:28:05.060Z,20.50
2019-06-26T03:29:04.610Z,20.50
2019-06-26T03:30:05.089Z,20.50
2019-06-26T03:31:04.768Z,20.50
2019-06-26T03:32:04.264Z,20.50
2019-06-26T03:33:04.406Z,20.50
2019-06-26T03:34:05.178Z,20.50
2019-06-26T03:35:04.349Z,20.50
2019-06-26T03:36:04.802Z,20.50
2019-06-26T03:37:04.463Z,20.50
2019-06-26T03:38:04.968Z,20.50
2019-06-26T03:39:04.256Z,20.50
2019-06-26T03:40:04.463Z,20.50
2019-06-26T03:41:04.588Z,20.60
2019-06-26T03:42:05.147Z,20.60
2019-06-26T03:43:04.847Z,20.60
2019-06-26T03:44:04.606Z,20.60
2019-06-26T03:45:04.807Z,20.70
2019-06-26T03:46:04.699Z,20.70
2019-06-26T03:47:10.245Z,20.80
2019-06-26T03:48:04.751Z,20.90
2019-06-26T03:49:04.867Z,20.90
2019-06-26T03:50:04.291Z,21.00
2019-06-26T03:51:04.697Z,21.10
2019-06-26T03:52:05.072Z,21.10
2019-06-26T03:53:04.276Z,21.20
2019-06-26T03:54:05.026Z,21.20
2019-06-26T03:55:04.327Z,21.30
2019-06-26T03:56:04.661Z,21.40
2019-06-26T03:57:04.938Z,21.50
2019-06-26T03:58:04.541Z,21.50
2019-06-26T03:59:05.131Z,21.60
2019-06-26T04:00:05.303Z,21.70
2019-06-26T04:01:04.448Z,21.80
2019-06-26T04:02:04.572Z,21.90
2019-06-26T04:03:04.880Z,22.00
2019-06-26T04:04:04.916Z,22.10
2019-06-26T04:05:04.476Z,22.20
2019-06-26T04:06:04.263Z,22.30
2019-06-26T04:07:04.632Z,22.40
2019-06-26T04:08:04.642Z,22.50
2019-06-26T04:09:04.835Z,22.60
2019-06-26T04:10:04.918Z,22.70
2019-06-26T04:11:04.783Z,22.80
2019-06-26T04:12:05.076Z,22.90
2019-06-26T04:13:04.954Z,23.00
2019-06-26T04:14:04.484Z,23.10
2019-06-26T04:15:04.456Z,23.20
2019-06-26T04:16:04.486Z,23.30
2019-06-26T04:17:05.136Z,23.40
2019-06-26T04:18:04.372Z,23.50
2019-06-26T04:19:04.455Z,23.70
2019-06-26T04:20:04.816Z,23.80
2019-06-26T04:21:04.363Z,23.90
2019-06-26T04:22:05.133Z,24.00
2019-06-26T04:23:04.754Z,24.10
2019-06-26T04:24:05.217Z,24.20
2019-06-26T04:25:05.141Z,24.30
2019-06-26T04:26:04.563Z,24.40
2019-06-26T04:27:05.085Z,24.40
2019-06-26T04:28:06.393Z,24.50
2019-06-26T04:29:05.151Z,24.60
2019-06-26T04:30:04.738Z,24.70
2019-06-26T04:31:04.881Z,24.80
2019-06-26T04:32:04.506Z,24.80
2019-06-26T04:33:04.186Z,24.90
2019-06-26T04:34:04.407Z,25.00
2019-06-26T04:35:04.642Z,25.10
2019-06-26T04:36:05.008Z,25.20
2019-06-26T04:37:05.073Z,25.30
2019-06-26T04:38:04.235Z,25.30
2019-06-26T04:39:04.876Z,25.40
2019-06-26T04:40:04.564Z,25.50
2019-06-26T04:41:04.971Z,25.60
2019-06-26T04:42:05.061Z,25.70
2019-06-26T04:43:05.160Z,25.80
2019-06-26T04:44:04.295Z,25.90
2019-06-26T04:45:04.933Z,26.00
2019-06-26T04:46:04.570Z,26.10
2019-06-26T04:47:04.841Z,26.20
2019-06-26T04:48:07.161Z,26.30
2019-06-26T04:49:05.205Z,26.30
2019-06-26T04:50:04.628Z,26.40
2019-06-26T04:51:04.480Z,26.50
2019-06-26T04:52:09.585Z,26.60
2019-06-26T04:53:04.984Z,26.70
2019-06-26T04:54:04.483Z,26.80
2019-06-26T04:55:04.722Z,26.90
2019-06-26T04:56:04.912Z,27.00
2019-06-26T04:57:05.003Z,27.10
2019-06-26T04:58:04.811Z,27.20
2019-06-26T04:59:04.894Z,27.30
2019-06-26T05:00:04.672Z,27.30
2019-06-26T05:01:04.446Z,27.40
2019-06-26T05:02:04.737Z,27.50
2019-06-26T05:03:05.142Z,27.60
2019-06-26T05:04:04.260Z,27.70
2019-06-26T05:05:04.837Z,27.80
2019-06-26T05:06:04.969Z,27.80
2019-06-26T05:07:04.533Z,27.90
2019-06-26T05:08:05.193Z,28.00
2019-06-26T05:09:04.470Z,28.00
2019-06-26T05:10:05.000Z,28.10
2019-06-26T05:11:04.604Z,28.20
2019-06-26T05:12:04.608Z,28.30
2019-06-26T05:13:04.735Z,28.40
2019-06-26T05:14:05.088Z,28.40
2019-06-26T05:15:04.637Z,28.50
2019-06-26T05:16:14.073Z,28.60
2019-06-26T05:17:04.992Z,28.70
2019-06-26T05:18:05.033Z,28.70
2019-06-26T05:19:04.315Z,28.80
2019-06-26T05:20:04.326Z,28.90
2019-06-26T05:21:04.626Z,29.00
2019-06-26T05:22:04.704Z,29.10
2019-06-26T05:23:05.070Z,29.10
2019-06-26T05:24:04.791Z,29.20
2019-06-26T05:25:05.000Z,29.20
2019-06-26T05:26:09.725Z,29.30
2019-06-26T05:27:05.157Z,29.30
2019-06-26T05:28:08.020Z,29.40
2019-06-26T05:29:04.197Z,29.50
2019-06-26T05:30:04.925Z,29.50
2019-06-26T05:31:05.271Z,29.50
2019-06-26T05:32:04.307Z,29.60
2019-06-26T05:33:04.558Z,29.70
2019-06-26T05:34:04.659Z,29.70
2019-06-26T05:35:04.751Z,29.80
2019-06-26T05:36:04.803Z,29.80
2019-06-26T05:37:04.153Z,29.80
2019-06-26T05:38:04.484Z,29.90
2019-06-26T05:39:04.462Z,30.00
2019-06-26T05:40:05.153Z,30.00
2019-06-26T05:41:04.593Z,30.10
2019-06-26T05:42:06.725Z,30.10
2019-06-26T05:43:04.629Z,30.20
2019-06-26T05:44:04.211Z,30.20
2019-06-26T05:45:04.857Z,30.30
2019-06-26T05:46:05.173Z,30.40
2019-06-26T05:47:07.045Z,30.50
2019-06-26T05:48:05.206Z,30.50
2019-06-26T05:49:04.328Z,30.60
2019-06-26T05:50:04.380Z,30.70
2019-06-26T05:51:04.951Z,30.70
2019-06-26T05:52:04.336Z,30.80
2019-06-26T05:53:04.304Z,30.80
2019-06-26T05:54:05.078Z,30.90
2019-06-26T05:55:04.468Z,30.90
2019-06-26T05:56:05.224Z,31.00
2019-06-26T05:57:04.350Z,31.10
2019-06-26T05:58:04.542Z,31.10
2019-06-26T05:59:04.721Z,31.10
2019-06-26T06:00:09.927Z,31.20
2019-06-26T06:01:04.413Z,31.30
2019-06-26T06:02:04.647Z,31.30
2019-06-26T06:03:04.811Z,31.40
2019-06-26T06:04:04.895Z,31.40
2019-06-26T06:05:05.129Z,31.50
2019-06-26T06:06:04.316Z,31.50
2019-06-26T06:07:04.855Z,31.60
2019-06-26T06:08:04.903Z,31.60
2019-06-26T06:09:04.725Z,31.70
2019-06-26T06:10:05.158Z,31.70
2019-06-26T06:11:04.588Z,31.80
2019-06-26T06:12:05.235Z,31.80
2019-06-26T06:13:04.579Z,31.80
2019-06-26T06:14:04.866Z,31.80
2019-06-26T06:15:04.174Z,31.80
2019-06-26T06:16:06.438Z,31.80
2019-06-26T06:17:04.333Z,31.80
2019-06-26T06:18:04.557Z,31.80
2019-06-26T06:19:04.844Z,31.80
2019-06-26T06:20:04.208Z,31.80
2019-06-26T06:21:05.326Z,31.90
2019-06-26T06:22:04.364Z,31.90
2019-06-26T06:23:04.588Z,31.90
2019-06-26T06:24:04.756Z,31.90
2019-06-26T06:25:04.536Z,32.00
2019-06-26T06:26:05.192Z,32.00
2019-06-26T06:27:04.928Z,32.00
2019-06-26T06:28:05.017Z,32.00
2019-06-26T06:29:04.261Z,32.00
2019-06-26T06:30:04.506Z,32.10
2019-06-26T06:31:04.574Z,32.10
2019-06-26T06:32:04.495Z,32.10
2019-06-26T06:33:05.008Z,32.10
2019-06-26T06:34:04.458Z,32.20
2019-06-26T06:35:04.720Z,32.20
2019-06-26T06:36:04.555Z,32.30
2019-06-26T06:37:04.792Z,32.30
2019-06-26T06:38:04.858Z,32.30
2019-06-26T06:39:05.016Z,32.40
2019-06-26T06:40:04.735Z,32.40
2019-06-26T06:41:05.205Z,32.40
2019-06-26T06:42:04.372Z,32.50
2019-06-26T06:43:05.051Z,32.50
2019-06-26T06:44:04.837Z,32.60
2019-06-26T06:45:12.029Z,32.60
2019-06-26T06:52:04.651Z,32.80
2019-06-26T06:53:04.967Z,32.90
2019-06-26T06:54:04.564Z,32.90
2019-06-26T06:55:04.780Z,33.00
2019-06-26T06:56:05.000Z,32.90
2019-06-26T06:57:05.169Z,32.90
2019-06-26T06:58:04.361Z,33.00
2019-06-26T06:59:04.814Z,33.00
2019-06-26T07:00:05.113Z,33.00
2019-06-26T07:01:05.202Z,33.10
2019-06-26T07:02:04.249Z,33.10
2019-06-26T07:03:04.904Z,33.10
2019-06-26T07:04:04.434Z,33.20
2019-06-26T07:05:05.172Z,33.20
2019-06-26T07:06:04.349Z,33.30
2019-06-26T07:07:04.496Z,33.30
2019-06-26T07:08:04.295Z,33.30
2019-06-26T07:09:04.424Z,33.30
2019-06-26T07:10:05.188Z,33.40
2019-06-26T07:11:04.290Z,33.40
2019-06-26T07:12:04.994Z,33.50
2019-06-26T07:13:04.848Z,33.50
2019-06-26T07:14:04.261Z,33.50
2019-06-26T07:15:04.888Z,33.60
2019-06-26T07:16:04.284Z,33.60
2019-06-26T07:17:19.181Z,33.70
2019-06-26T07:18:04.821Z,33.70
2019-06-26T07:19:04.348Z,33.70
2019-06-26T07:20:04.582Z,33.70
2019-06-26T07:21:04.224Z,33.80
2019-06-26T07:22:07.146Z,33.80
2019-06-26T07:23:05.119Z,33.90
2019-06-26T07:24:04.724Z,33.90
2019-06-26T07:25:04.992Z,33.90
2019-06-26T07:26:05.082Z,34.00
2019-06-26T07:27:05.128Z,34.00
2019-06-26T07:28:04.585Z,34.00
2019-06-26T07:29:05.134Z,34.00
2019-06-26T07:30:04.917Z,34.10
2019-06-26T07:31:04.529Z,34.10
2019-06-26T07:32:04.685Z,34.10
2019-06-26T07:33:04.947Z,34.10
2019-06-26T07:34:05.183Z,34.20
2019-06-26T07:35:04.668Z,34.20
2019-06-26T07:36:04.939Z,34.20
2019-06-26T07:37:04.440Z,34.20
2019-06-26T07:38:05.156Z,34.30
2019-06-26T07:39:04.408Z,34.30
2019-06-26T07:40:04.905Z,34.30
2019-06-26T07:41:05.102Z,34.30
2019-06-26T07:42:09.475Z,34.30
2019-06-26T07:43:04.986Z,34.30
2019-06-26T07:44:04.299Z,34.30
2019-06-26T07:45:04.368Z,34.40
2019-06-26T07:46:04.544Z,34.40
2019-06-26T07:47:12.570Z,34.40
2019-06-26T07:48:04.491Z,34.40
2019-06-26T07:49:04.451Z,34.50
2019-06-26T07:50:04.712Z,34.50
2019-06-26T07:51:04.376Z,34.50
2019-06-26T07:52:05.162Z,34.60
2019-06-26T07:53:04.914Z,34.60
2019-06-26T07:54:04.342Z,34.70
2019-06-26T07:55:04.709Z,34.70
2019-06-26T07:56:05.240Z,34.70
2019-06-26T07:57:04.326Z,34.70
2019-06-26T07:58:04.557Z,34.80
2019-06-26T07:59:04.653Z,34.80
2019-06-26T08:00:05.283Z,34.80
2019-06-26T08:01:04.395Z,34.80
2019-06-26T08:02:04.749Z,34.80
2019-06-26T08:03:04.929Z,34.90
2019-06-26T08:04:04.336Z,34.90
2019-06-26T08:05:04.345Z,34.90
2019-06-26T08:06:05.151Z,34.90
2019-06-26T08:07:04.324Z,34.90
2019-06-26T08:08:04.399Z,35.00
2019-06-26T08:09:04.563Z,35.00
2019-06-26T08:10:05.068Z,35.00
2019-06-26T08:11:06.474Z,35.10
2019-06-26T08:12:04.530Z,35.10
2019-06-26T08:13:04.694Z,35.10
2019-06-26T08:14:04.916Z,35.10
2019-06-26T08:15:04.219Z,35.10
2019-06-26T08:16:05.150Z,35.20
2019-06-26T08:17:04.421Z,35.20
2019-06-26T08:18:04.546Z,35.20
2019-06-26T08:19:04.999Z,35.30
2019-06-26T08:20:04.773Z,35.30
2019-06-26T08:21:11.858Z,35.30
2019-06-26T08:22:04.704Z,35.30
2019-06-26T08:23:04.984Z,35.40
2019-06-26T08:24:05.035Z,35.40
2019-06-26T08:25:04.798Z,35.40
2019-06-26T08:26:04.273Z,35.40
2019-06-26T08:27:04.647Z,35.40
2019-06-26T08:28:05.154Z,35.50
2019-06-26T08:29:04.789Z,35.50
2019-06-26T08:30:04.336Z,35.50
2019-06-26T08:31:04.494Z,35.50
2019-06-26T08:32:04.303Z,35.50
2019-06-26T08:33:04.370Z,35.50
2019-06-26T08:34:04.291Z,35.50
2019-06-26T08:35:04.483Z,35.50
2019-06-26T08:36:04.472Z,35.50
2019-06-26T08:37:05.229Z,35.60
2019-06-26T08:38:10.129Z,35.60
2019-06-26T08:39:04.235Z,35.60
2019-06-26T08:40:04.965Z,35.60
2019-06-26T08:41:05.041Z,35.60
2019-06-26T08:42:04.301Z,35.60
2019-06-26T08:43:04.501Z,35.60
2019-06-26T08:44:04.602Z,35.60
2019-06-26T08:45:04.791Z,35.60
2019-06-26T08:46:04.970Z,35.60
2019-06-26T08:47:04.399Z,35.60
2019-06-26T08:48:17.169Z,35.60
2019-06-26T08:49:05.238Z,35.70
2019-06-26T08:50:04.427Z,35.70
2019-06-26T08:51:04.940Z,35.70
2019-06-26T08:52:04.446Z,35.70
2019-06-26T08:53:04.747Z,35.70
2019-06-26T08:54:05.000Z,35.80
2019-06-26T08:55:04.626Z,35.80
2019-06-26T08:56:04.449Z,35.80
2019-06-26T08:57:04.911Z,35.90
2019-06-26T08:58:05.112Z,35.90
2019-06-26T08:59:04.961Z,35.90
2019-06-26T09:00:04.486Z,36.00
2019-06-26T09:01:04.582Z,36.00
2019-06-26T09:02:04.751Z,36.00
2019-06-26T09:03:05.122Z,36.00
2019-06-26T09:04:04.698Z,36.00
2019-06-26T09:05:05.239Z,36.10
2019-06-26T09:06:04.513Z,36.10
2019-06-26T09:07:04.649Z,36.10
2019-06-26T09:08:04.451Z,36.10
2019-06-26T09:09:04.806Z,36.10
2019-06-26T09:10:05.165Z,36.10
2019-06-26T09:11:04.823Z,36.10
2019-06-26T09:12:04.470Z,36.10
2019-06-26T09:13:04.608Z,36.10
2019-06-26T09:14:05.204Z,36.10
2019-06-26T09:15:04.415Z,36.20
2019-06-26T09:16:04.951Z,36.20
2019-06-26T09:17:04.978Z,36.20
2019-06-26T09:18:04.218Z,36.20
2019-06-26T09:19:04.909Z,36.20
2019-06-26T09:20:04.436Z,36.30
2019-06-26T09:21:04.649Z,36.30
2019-06-26T09:22:04.892Z,36.30
2019-06-26T09:23:04.265Z,36.40
2019-06-26T09:24:04.744Z,36.40
2019-06-26T09:25:20.086Z,36.40
2019-06-26T09:26:05.106Z,36.40
2019-06-26T09:27:04.528Z,36.40
2019-06-26T09:28:04.293Z,36.50
2019-06-26T09:29:04.321Z,36.50
2019-06-26T09:30:04.841Z,36.40
2019-06-26T09:31:04.378Z,36.40
2019-06-26T09:32:05.120Z,36.40
2019-06-26T09:33:04.471Z,36.40
2019-06-26T09:34:05.005Z,36.30
2019-06-26T09:35:04.521Z,36.30
2019-06-26T09:36:06.797Z,36.30
2019-06-26T09:37:04.879Z,36.30
2019-06-26T09:38:05.140Z,36.40
2019-06-26T09:39:04.737Z,36.40
2019-06-26T09:40:04.917Z,36.40
2019-06-26T09:41:04.404Z,36.40
2019-06-26T09:42:04.568Z,36.40
2019-06-26T09:43:04.710Z,36.40
2019-06-26T09:44:04.355Z,36.50
2019-06-26T09:45:04.390Z,36.50
2019-06-26T09:46:04.956Z,36.50
2019-06-26T09:47:04.602Z,36.50
2019-06-26T09:48:04.971Z,36.60
2019-06-26T09:49:04.866Z,36.60
2019-06-26T09:50:04.649Z,36.60
2019-06-26T09:51:04.871Z,36.70
2019-06-26T09:52:04.472Z,36.70
2019-06-26T09:53:05.609Z,36.70
2019-06-26T09:54:04.656Z,36.70
2019-06-26T09:55:05.048Z,36.70
2019-06-26T09:56:04.229Z,36.70
2019-06-26T09:57:04.450Z,36.60
2019-06-26T09:58:05.039Z,36.60
2019-06-26T09:59:04.545Z,36.60
2019-06-26T10:00:04.760Z,36.60
2019-06-26T10:01:05.003Z,36.60
2019-06-26T10:02:04.302Z,36.60
2019-06-26T10:03:05.014Z,36.70
2019-06-26T10:04:04.824Z,36.70
2019-06-26T10:05:04.243Z,36.70
2019-06-26T10:06:04.387Z,36.70
2019-06-26T10:07:04.644Z,36.70
2019-06-26T10:08:05.226Z,36.70
2019-06-26T10:09:04.283Z,36.80
2019-06-26T10:10:04.585Z,36.80
2019-06-26T10:11:04.838Z,36.80
2019-06-26T10:12:04.743Z,36.80
2019-06-26T10:13:04.831Z,36.80
2019-06-26T10:14:05.216Z,36.80
2019-06-26T10:15:04.943Z,36.80
2019-06-26T10:16:04.380Z,36.80
2019-06-26T10:17:04.640Z,36.80
2019-06-26T10:18:04.736Z,36.80
2019-06-26T10:19:09.868Z,36.80
2019-06-26T10:20:04.523Z,36.80
2019-06-26T10:21:04.666Z,36.80
2019-06-26T10:22:04.365Z,36.70
2019-06-26T10:23:04.865Z,36.70
2019-06-26T10:24:05.107Z,36.70
2019-06-26T10:25:04.804Z,36.70
2019-06-26T10:26:04.807Z,36.60
2019-06-26T10:27:05.244Z,36.50
2019-06-26T10:28:04.395Z,36.50
2019-06-26T10:29:04.672Z,36.60
2019-06-26T10:30:04.781Z,36.50
2019-06-26T10:31:04.983Z,36.50
2019-06-26T10:38:04.880Z,36.50
2019-06-26T10:39:05.137Z,36.60
2019-06-26T10:40:04.529Z,36.60
2019-06-26T10:41:04.995Z,36.60
2019-06-26T10:42:04.349Z,36.70
2019-06-26T10:43:05.126Z,36.70
2019-06-26T10:44:05.037Z,36.70
2019-06-26T10:45:04.392Z,36.80
2019-06-26T10:46:05.090Z,36.80
2019-06-26T10:47:05.261Z,36.80
2019-06-26T10:48:04.740Z,36.90
2019-06-26T10:49:05.074Z,36.90
2019-06-26T10:50:05.169Z,36.90
2019-06-26T10:51:04.515Z,37.00
2019-06-26T10:52:04.332Z,37.00
2019-06-26T10:53:04.447Z,37.00
2019-06-26T10:54:04.817Z,37.00
2019-06-26T10:55:05.194Z,37.00
2019-06-26T10:56:04.389Z,37.00
2019-06-26T10:57:04.740Z,37.00
2019-06-26T10:58:04.342Z,37.00
2019-06-26T10:59:04.447Z,37.00
2019-06-26T11:00:05.178Z,37.00
2019-06-26T11:01:04.377Z,37.00
2019-06-26T11:02:04.847Z,37.00
2019-06-26T11:03:04.216Z,37.00
2019-06-26T11:04:04.592Z,37.00
2019-06-26T11:05:04.874Z,37.00
2019-06-26T11:06:04.244Z,37.00
2019-06-26T11:07:04.758Z,37.10
2019-06-26T11:08:05.089Z,37.10
2019-06-26T11:09:05.314Z,37.10
2019-06-26T11:10:04.521Z,37.20
2019-06-26T11:11:04.916Z,37.20
2019-06-26T11:12:04.380Z,37.20
2019-06-26T11:13:05.113Z,37.30
2019-06-26T11:14:04.335Z,37.30
2019-06-26T11:15:04.603Z,37.20
2019-06-26T11:16:04.808Z,37.20
2019-06-26T11:17:05.316Z,37.30
2019-06-26T11:18:09.465Z,37.30
2019-06-26T11:19:04.919Z,37.20
2019-06-26T11:20:04.415Z,37.20
2019-06-26T11:21:04.775Z,37.30
2019-06-26T11:22:04.912Z,37.20
2019-06-26T11:23:04.603Z,37.30
2019-06-26T11:24:05.115Z,37.30
2019-06-26T11:25:04.566Z,37.30
2019-06-26T11:26:04.637Z,37.30
2019-06-26T11:27:05.021Z,37.30
2019-06-26T11:28:04.310Z,37.40
2019-06-26T11:29:04.620Z,37.40
2019-06-26T11:30:04.825Z,37.40
2019-06-26T11:31:05.066Z,37.40
2019-06-26T11:32:04.760Z,37.40
2019-06-26T11:33:04.837Z,37.40
2019-06-26T11:34:04.703Z,37.40
2019-06-26T11:35:04.876Z,37.40
2019-06-26T11:36:04.358Z,37.30
2019-06-26T11:37:04.945Z,37.30
2019-06-26T11:38:05.221Z,37.30
2019-06-26T11:39:05.146Z,37.40
2019-06-26T11:40:04.384Z,37.40
2019-06-26T11:41:04.890Z,37.40
2019-06-26T11:42:05.061Z,37.40
2019-06-26T11:43:04.480Z,37.40
2019-06-26T11:44:04.847Z,37.40
2019-06-26T11:45:05.009Z,37.30
2019-06-26T11:46:04.690Z,37.30
2019-06-26T11:47:04.849Z,37.30
2019-06-26T11:48:05.074Z,37.30
2019-06-26T11:49:04.343Z,37.30
2019-06-26T11:50:04.540Z,37.30
2019-06-26T11:51:04.683Z,37.30
2019-06-26T11:52:04.871Z,37.30
2019-06-26T11:53:05.248Z,37.20
2019-06-26T11:54:04.403Z,37.20
2019-06-26T11:55:04.750Z,37.20
2019-06-26T11:56:04.755Z,37.20
2019-06-26T11:57:04.883Z,37.20
2019-06-26T11:58:05.260Z,37.20
2019-06-26T11:59:04.691Z,37.20
2019-06-26T12:00:04.451Z,37.20
2019-06-26T12:01:05.188Z,37.20
2019-06-26T12:02:04.801Z,37.20
2019-06-26T12:03:04.919Z,37.20
2019-06-26T12:04:05.219Z,37.20
2019-06-26T12:05:04.583Z,37.20
2019-06-26T12:06:15.641Z,37.20
2019-06-26T12:07:04.841Z,37.20
2019-06-26T12:08:04.369Z,37.20
2019-06-26T12:09:04.321Z,37.20
2019-06-26T12:10:05.288Z,37.10
2019-06-26T12:11:04.712Z,37.10
2019-06-26T12:12:05.319Z,37.10
2019-06-26T12:13:04.745Z,37.10
2019-06-26T12:14:04.396Z,37.10
2019-06-26T12:15:04.740Z,37.10
2019-06-26T12:16:04.958Z,37.10
2019-06-26T12:17:04.593Z,37.20
2019-06-26T12:18:04.465Z,37.20
2019-06-26T12:19:10.319Z,37.20
2019-06-26T12:20:17.552Z,37.20
2019-06-26T12:21:04.726Z,37.20
2019-06-26T12:22:05.416Z,37.20
2019-06-26T12:23:05.063Z,37.20
2019-06-26T12:24:04.855Z,37.20
2019-06-26T12:25:05.416Z,37.30
2019-06-26T12:26:04.643Z,37.30
2019-06-26T12:27:04.445Z,37.30
2019-06-26T12:28:05.329Z,37.30
2019-06-26T12:29:04.587Z,37.20
2019-06-26T12:30:04.946Z,37.20
2019-06-26T12:31:05.226Z,37.20
2019-06-26T12:32:04.265Z,37.30
2019-06-26T12:33:05.032Z,37.30
2019-06-26T12:34:04.410Z,37.20
2019-06-26T12:35:04.460Z,37.30
2019-06-26T12:36:04.762Z,37.30
2019-06-26T12:37:05.131Z,37.30
2019-06-26T12:38:04.762Z,37.30
2019-06-26T12:39:05.304Z,37.30
2019-06-26T12:40:04.497Z,37.30
2019-06-26T12:41:04.510Z,37.30
2019-06-26T12:42:05.130Z,37.30
2019-06-26T12:43:05.197Z,37.30
2019-06-26T12:44:04.604Z,37.30
2019-06-26T12:45:05.184Z,37.30
2019-06-26T12:46:04.453Z,37.30
2019-06-26T12:47:04.536Z,37.30
2019-06-26T12:48:04.666Z,37.30
2019-06-26T12:49:05.221Z,37.30
2019-06-26T12:50:05.332Z,37.30
2019-06-26T12:51:04.603Z,37.30
2019-06-26T12:52:04.766Z,37.30
2019-06-26T12:53:10.161Z,37.30
2019-06-26T12:54:04.678Z,37.30
2019-06-26T12:55:04.760Z,37.30
2019-06-26T12:56:04.598Z,37.20
2019-06-26T12:57:05.114Z,37.30
2019-06-26T12:58:12.894Z,37.30
2019-06-26T12:59:04.747Z,37.30
2019-06-26T13:00:04.973Z,37.30
2019-06-26T13:01:04.860Z,37.30
2019-06-26T13:02:05.115Z,37.30
2019-06-26T13:03:04.229Z,37.30
2019-06-26T13:04:04.588Z,37.20